createdAt,value
2019-03-20T00:00:31.741Z,24.37
2019-03-20T00:03:00.274Z,20.73
2019-03-20T00:05:28.781Z,23.17
2019-03-20T00:07:58.993Z,24.20
2019-03-20T00:10:29.025Z,25.17
2019-03-20T00:12:57.857Z,25.07
2019-03-20T00:15:26.326Z,25.30
2019-03-20T00:17:54.802Z,31.17
2019-03-20T00:20:23.645Z,25.60
2019-03-20T00:22:52.200Z,25.00
2019-03-20T00:25:20.834Z,25.50
2019-03-20T00:27:50.540Z,24.60
2019-03-20T00:30:22.104Z,25.00
2019-03-20T00:32:50.651Z,21.43
2019-03-20T00:35:19.248Z,22.25
2019-03-20T00:37:47.986Z,23.90
2019-03-20T00:40:17.700Z,25.93
2019-03-20T00:42:46.896Z,22.97
2019-03-20T00:45:19.857Z,26.63
2019-03-20T00:47:48.873Z,20.70
2019-03-20T00:50:20.463Z,23.83
2019-03-20T00:52:49.016Z,26.50
2019-03-20T00:55:18.593Z,20.32
2019-03-20T00:57:48.309Z,22.47
2019-03-20T01:00:21.930Z,24.57
2019-03-20T01:02:50.431Z,20.40
2019-03-20T01:05:19.049Z,21.85
2019-03-20T01:07:47.638Z,20.83
2019-03-20T01:10:20.900Z,24.30
2019-03-20T01:12:50.459Z,22.67
2019-03-20T01:15:19.752Z,18.37
2019-03-20T01:17:48.470Z,24.63
2019-03-20T01:20:18.981Z,18.67
2019-03-20T01:22:48.281Z,23.90
2019-03-20T01:25:17.884Z,21.40
2019-03-20T01:27:46.778Z,25.10
2019-03-20T01:30:37.896Z,21.00
2019-03-20T01:33:08.513Z,23.57
2019-03-20T01:35:37.254Z,26.63
2019-03-20T01:38:06.856Z,25.33
2019-03-20T01:40:36.192Z,19.47
2019-03-20T01:43:05.744Z,20.53
2019-03-20T01:45:34.422Z,19.50
2019-03-20T01:48:03.495Z,18.07
2019-03-20T01:50:32.063Z,22.47
2019-03-20T01:53:00.793Z,28.83
2019-03-20T01:55:29.326Z,28.90
2019-03-20T01:57:57.866Z,23.93
2019-03-20T02:00:26.410Z,24.63
2019-03-20T02:02:55.302Z,23.50
2019-03-20T02:05:34.768Z,18.73
2019-03-20T02:07:54.173Z,18.17
2019-03-20T02:10:22.717Z,16.23
2019-03-20T02:12:51.264Z,20.23
2019-03-20T02:15:19.957Z,19.05
2019-03-20T02:17:48.873Z,28.00
2019-03-20T02:20:18.419Z,21.35
2019-03-20T02:22:47.065Z,26.20
2019-03-20T02:25:15.901Z,20.63
2019-03-20T02:27:44.545Z,20.53
2019-03-20T02:30:18.552Z,20.17
2019-03-20T02:32:47.480Z,26.20
2019-03-20T02:35:16.273Z,20.97
2019-03-20T02:37:44.753Z,24.93
2019-03-20T02:40:16.749Z,20.07
2019-03-20T02:42:45.317Z,20.03
2019-03-20T02:45:17.574Z,26.85
2019-03-20T02:47:48.148Z,27.73
2019-03-20T02:50:17.028Z,19.30
2019-03-20T02:52:45.584Z,23.67
2019-03-20T02:55:15.699Z,22.90
2019-03-20T02:57:44.406Z,20.43
2019-03-20T03:00:15.996Z,20.67
2019-03-20T03:02:45.190Z,20.97
2019-03-20T03:05:15.448Z,22.15
2019-03-20T03:07:44.816Z,21.47
2019-03-20T03:10:17.791Z,17.73
2019-03-20T03:12:47.069Z,21.30
2019-03-20T03:15:16.885Z,23.53
2019-03-20T03:17:46.071Z,19.40
2019-03-20T03:20:15.858Z,19.82
2019-03-20T03:22:45.032Z,22.60
2019-03-20T03:25:15.372Z,25.03
2019-03-20T03:27:44.038Z,21.57
2019-03-20T03:30:20.497Z,16.70
2019-03-20T03:32:49.459Z,22.63
2019-03-20T03:35:19.807Z,21.80
2019-03-20T03:37:48.183Z,19.67
2019-03-20T03:40:17.999Z,26.75
2019-03-20T03:42:47.121Z,26.43
2019-03-20T03:45:17.220Z,19.92
2019-03-20T03:47:46.024Z,20.60
2019-03-20T03:50:15.366Z,23.07
2019-03-20T03:52:44.042Z,22.47
2019-03-20T03:55:15.899Z,22.17
2019-03-20T03:57:45.237Z,23.83
2019-03-20T04:00:18.942Z,25.53
2019-03-20T04:02:47.541Z,32.07
2019-03-20T04:05:16.212Z,25.05
2019-03-20T04:07:45.207Z,30.07
2019-03-20T04:10:15.982Z,26.83
2019-03-20T04:12:44.600Z,20.47
2019-03-20T04:15:17.340Z,20.63
2019-03-20T04:17:45.943Z,27.23
2019-03-20T04:20:15.919Z,27.63
2019-03-20T04:22:44.481Z,25.63
2019-03-20T04:25:13.498Z,22.70
2019-03-20T04:27:42.103Z,24.50
2019-03-20T04:30:18.460Z,31.60
2019-03-20T04:32:47.234Z,22.93
2019-03-20T04:35:16.452Z,30.60
2019-03-20T04:37:45.487Z,26.23
2019-03-20T04:40:15.868Z,26.82
2019-03-20T04:42:44.499Z,28.00
2019-03-20T04:45:14.234Z,27.90
2019-03-20T04:47:43.517Z,22.95
2019-03-20T04:50:16.108Z,21.82
2019-03-20T04:52:44.591Z,26.30
2019-03-20T04:55:13.269Z,28.07
2019-03-20T04:57:41.920Z,29.70
2019-03-20T05:00:18.286Z,24.55
2019-03-20T05:02:47.010Z,28.40
2019-03-20T05:05:15.501Z,23.97
2019-03-20T05:07:44.178Z,24.93
2019-03-20T05:10:20.105Z,25.33
2019-03-20T05:12:48.763Z,24.90
2019-03-20T05:15:17.483Z,32.98
2019-03-20T05:17:46.048Z,27.40
2019-03-20T05:20:22.529Z,26.77
2019-03-20T05:22:51.389Z,25.03
2019-03-20T05:25:19.887Z,30.20
2019-03-20T05:27:48.620Z,26.10
2019-03-20T05:30:17.427Z,26.97
2019-03-20T05:32:46.071Z,25.20
2019-03-20T05:35:14.752Z,24.57
2019-03-20T05:37:43.331Z,28.10
2019-03-20T05:40:18.760Z,29.30
2019-03-20T05:42:47.596Z,33.27
2019-03-20T05:45:19.908Z,28.63
2019-03-20T05:47:48.693Z,27.90
2019-03-20T05:50:18.481Z,25.93
2019-03-20T05:52:47.217Z,26.12
2019-03-20T05:55:15.714Z,30.60
2019-03-20T05:57:44.162Z,30.20
2019-03-20T06:00:18.774Z,27.27
2019-03-20T06:02:47.401Z,22.73
2019-03-20T06:05:16.037Z,26.27
2019-03-20T06:07:44.837Z,31.40
2019-03-20T06:10:17.116Z,27.20
2019-03-20T06:12:45.601Z,29.83
2019-03-20T06:15:15.279Z,30.25
2019-03-20T06:17:43.837Z,28.70
2019-03-20T06:20:13.741Z,24.20
2019-03-20T06:22:42.224Z,26.87
2019-03-20T06:25:20.966Z,25.50
2019-03-20T06:27:47.478Z,25.57
2019-03-20T06:30:18.058Z,22.37
2019-03-20T06:32:46.625Z,29.33
2019-03-20T06:35:15.697Z,29.48
2019-03-20T06:37:44.179Z,25.10
2019-03-20T06:40:20.168Z,21.48
2019-03-20T06:42:48.685Z,25.17
2019-03-20T06:45:19.364Z,22.67
2019-03-20T06:47:48.002Z,28.73
2019-03-20T06:50:22.113Z,28.15
2019-03-20T06:52:50.653Z,31.43
2019-03-20T06:55:19.550Z,24.70
2019-03-20T06:57:48.385Z,28.30
2019-03-20T07:00:48.949Z,28.37
2019-03-20T07:03:32.674Z,30.27
2019-03-20T07:06:21.246Z,28.00
2019-03-20T07:09:25.958Z,28.07
2019-03-20T07:11:54.437Z,27.20
2019-03-20T07:14:22.920Z,30.87
2019-03-20T07:16:51.493Z,39.47
2019-03-20T07:19:19.967Z,28.98
2019-03-20T07:21:48.507Z,31.27
2019-03-20T07:24:17.084Z,34.23
2019-03-20T07:26:45.678Z,40.50
2019-03-20T07:29:14.145Z,33.45
2019-03-20T07:31:42.649Z,37.97
2019-03-20T07:34:11.426Z,28.43
2019-03-20T07:36:39.919Z,32.80
2019-03-20T07:39:09.741Z,35.00
2019-03-20T07:41:38.269Z,32.63
2019-03-20T07:44:06.892Z,38.93
2019-03-20T07:46:35.705Z,32.80
2019-03-20T07:49:05.519Z,34.47
2019-03-20T07:51:34.170Z,37.43
2019-03-20T07:54:02.746Z,37.13
2019-03-20T07:56:31.205Z,34.37
2019-03-20T07:59:00.079Z,33.90
2019-03-20T08:01:30.502Z,32.83
2019-03-20T08:03:59.058Z,37.37
2019-03-20T08:06:27.550Z,35.03
2019-03-20T08:08:56.358Z,34.83
2019-03-20T08:11:25.299Z,33.93
2019-03-20T08:13:53.942Z,38.67
2019-03-20T08:16:22.434Z,39.00
2019-03-20T08:18:50.902Z,40.43
2019-03-20T08:21:19.392Z,42.00
2019-03-20T08:23:47.938Z,40.17
2019-03-20T08:26:16.481Z,46.07
2019-03-20T08:28:45.432Z,47.37
2019-03-20T08:31:14.753Z,46.37
2019-03-20T08:33:43.313Z,45.07
2019-03-20T08:36:11.774Z,42.62
2019-03-20T08:38:40.265Z,48.33
2019-03-20T08:41:08.737Z,53.70
2019-03-20T08:43:37.221Z,52.67
2019-03-20T08:46:05.780Z,58.37
2019-03-20T08:48:34.638Z,58.10
2019-03-20T08:51:03.433Z,56.97
2019-03-20T08:53:31.928Z,59.67
2019-03-20T08:56:00.477Z,57.73
2019-03-20T08:58:29.083Z,61.20
2019-03-20T09:00:57.648Z,64.87
2019-03-20T09:03:26.199Z,60.60
2019-03-20T09:05:56.193Z,66.43
2019-03-20T09:08:29.331Z,67.40
2019-03-20T09:10:55.039Z,67.30
2019-03-20T09:13:23.860Z,72.50
2019-03-20T09:15:52.604Z,62.97
2019-03-20T09:18:21.150Z,63.60
2019-03-20T09:20:49.633Z,63.63
2019-03-20T09:23:18.130Z,64.43
2019-03-20T09:25:46.633Z,62.20
2019-03-20T09:28:15.108Z,64.30
2019-03-20T09:30:43.617Z,54.67
2019-03-20T09:33:12.184Z,61.07
2019-03-20T09:35:40.896Z,59.20
2019-03-20T09:38:09.457Z,50.23
2019-03-20T09:40:38.001Z,46.50
2019-03-20T09:43:06.580Z,54.23
2019-03-20T09:45:35.069Z,55.77
2019-03-20T09:48:04.735Z,46.30
2019-03-20T09:50:33.330Z,47.57
2019-03-20T09:53:01.818Z,48.33
2019-03-20T09:55:30.305Z,57.93
2019-03-20T09:57:59.609Z,45.83
2019-03-20T10:00:29.319Z,46.63
2019-03-20T10:02:57.801Z,44.30
2019-03-20T10:05:26.451Z,47.30
2019-03-20T10:07:55.191Z,50.63
2019-03-20T10:10:25.638Z,45.63
2019-03-20T10:12:54.578Z,49.10
2019-03-20T10:15:29.115Z,48.87
2019-03-20T10:17:57.629Z,54.00
2019-03-20T10:20:26.186Z,45.57
2019-03-20T10:22:55.153Z,50.30
2019-03-20T10:25:23.977Z,45.80
2019-03-20T10:27:52.758Z,46.63
2019-03-20T10:30:26.200Z,49.93
2019-03-20T10:32:55.176Z,50.07
2019-03-20T10:35:23.867Z,46.23
2019-03-20T10:37:52.513Z,50.57
2019-03-20T10:40:27.374Z,47.67
2019-03-20T10:42:55.844Z,44.33
2019-03-20T10:45:24.725Z,50.77
2019-03-20T10:47:53.572Z,50.97
2019-03-20T10:50:27.007Z,48.52
2019-03-20T10:52:55.538Z,50.10
2019-03-20T10:55:24.093Z,53.87
2019-03-20T10:57:53.801Z,56.40
2019-03-20T11:00:30.032Z,50.07
2019-03-20T11:02:58.867Z,49.30
2019-03-20T11:05:27.418Z,50.70
2019-03-20T11:07:55.967Z,52.40
2019-03-20T11:10:28.464Z,50.97
2019-03-20T11:12:57.465Z,50.40
2019-03-20T11:15:29.603Z,52.27
2019-03-20T11:17:57.381Z,53.37
2019-03-20T11:20:26.608Z,46.48
2019-03-20T11:22:55.456Z,47.60
2019-03-20T11:25:26.219Z,44.40
2019-03-20T11:27:54.914Z,44.90
2019-03-20T11:30:31.182Z,53.23
2019-03-20T11:32:59.746Z,55.13
2019-03-20T11:35:28.606Z,55.43
2019-03-20T11:37:57.135Z,46.13
2019-03-20T11:40:37.017Z,47.97
2019-03-20T11:43:06.030Z,51.23
2019-03-20T11:45:34.562Z,48.70
2019-03-20T11:48:03.349Z,45.90
2019-03-20T11:50:40.622Z,47.57
2019-03-20T11:53:09.943Z,45.17
2019-03-20T11:55:39.305Z,47.37
2019-03-20T11:58:08.417Z,45.37
2019-03-20T12:00:37.266Z,41.83
2019-03-20T12:03:06.361Z,50.53
2019-03-20T12:05:35.053Z,53.00
2019-03-20T12:08:05.012Z,49.08
2019-03-20T12:10:34.697Z,51.20
2019-03-20T12:13:03.500Z,49.30
2019-03-20T12:15:32.162Z,49.27
2019-03-20T12:18:01.123Z,53.40
2019-03-20T12:20:29.777Z,56.50
2019-03-20T12:22:58.392Z,57.73
2019-03-20T12:25:34.537Z,53.33
2019-03-20T12:28:03.295Z,50.37
2019-03-20T12:30:34.096Z,51.40
2019-03-20T12:33:03.085Z,56.77
2019-03-20T12:35:42.862Z,52.73
2019-03-20T12:38:14.756Z,51.90
2019-03-20T12:40:42.325Z,52.30
2019-03-20T12:43:10.893Z,56.10
2019-03-20T12:45:40.650Z,49.30
2019-03-20T12:48:11.726Z,57.30
2019-03-20T12:50:40.739Z,53.57
2019-03-20T12:53:12.553Z,50.17
2019-03-20T12:55:41.160Z,49.80
2019-03-20T12:58:09.617Z,54.73
2019-03-20T13:00:38.334Z,54.03
2019-03-20T13:03:06.804Z,57.07
2019-03-20T13:05:35.484Z,50.67
2019-03-20T13:08:06.457Z,47.33
2019-03-20T13:10:35.470Z,51.23
2019-03-20T13:13:04.509Z,55.67
2019-03-20T13:15:33.584Z,54.33
2019-03-20T13:18:02.469Z,58.10
2019-03-20T13:20:31.044Z,52.73
2019-03-20T13:23:06.269Z,61.83
2019-03-20T13:25:34.886Z,52.47
2019-03-20T13:28:03.517Z,54.77
2019-03-20T13:30:41.252Z,55.80
2019-03-20T13:33:10.263Z,54.37
2019-03-20T13:35:38.880Z,56.93
2019-03-20T13:38:07.384Z,55.30
2019-03-20T13:40:36.005Z,58.53
2019-03-20T13:43:05.013Z,63.23
2019-03-20T13:45:33.645Z,53.63
2019-03-20T13:48:02.130Z,45.93
2019-03-20T13:50:30.752Z,54.60
2019-03-20T13:52:59.319Z,52.57
2019-03-20T13:55:27.876Z,59.90
2019-03-20T13:57:56.489Z,56.93
2019-03-20T14:00:26.422Z,51.97
2019-03-20T14:02:55.467Z,52.40
2019-03-20T14:05:24.097Z,49.93
2019-03-20T14:07:52.973Z,50.57
2019-03-20T14:10:26.354Z,52.63
2019-03-20T14:12:55.367Z,52.17
2019-03-20T14:15:24.245Z,51.83
2019-03-20T14:17:52.727Z,51.30
2019-03-20T14:20:28.824Z,51.80
2019-03-20T14:22:57.766Z,52.85
2019-03-20T14:25:26.762Z,47.70
2019-03-20T14:27:55.622Z,50.03
2019-03-20T14:30:29.718Z,49.07
2019-03-20T14:32:58.656Z,51.93
2019-03-20T14:35:27.802Z,50.90
2019-03-20T14:37:56.455Z,49.40
2019-03-20T14:40:36.838Z,50.33
2019-03-20T14:43:03.924Z,50.77
2019-03-20T14:45:32.886Z,42.62
2019-03-20T14:48:01.434Z,44.33
2019-03-20T14:50:32.418Z,45.50
2019-03-20T14:53:01.508Z,39.47
2019-03-20T14:55:30.385Z,41.17
2019-03-20T14:57:59.047Z,39.27
2019-03-20T15:00:28.712Z,40.93
2019-03-20T15:02:58.374Z,44.00
2019-03-20T15:05:26.926Z,44.30
2019-03-20T15:07:55.512Z,43.03
2019-03-20T15:10:30.037Z,40.15
2019-03-20T15:12:58.510Z,44.80
2019-03-20T15:15:45.087Z,39.83
2019-03-20T15:18:14.038Z,39.90
2019-03-20T15:20:42.516Z,41.07
2019-03-20T15:23:11.022Z,40.40
2019-03-20T15:25:39.889Z,39.25
2019-03-20T15:28:08.787Z,42.15
2019-03-20T15:30:37.546Z,37.77
2019-03-20T15:33:06.047Z,35.08
2019-03-20T15:35:34.514Z,38.40
2019-03-20T15:38:03.051Z,36.00
2019-03-20T15:40:32.031Z,38.63
2019-03-20T15:43:00.672Z,36.70
2019-03-20T15:45:29.205Z,36.50
2019-03-20T15:47:57.803Z,39.27
2019-03-20T15:50:27.989Z,31.67
2019-03-20T15:52:57.510Z,28.90
2019-03-20T15:55:37.647Z,32.97
2019-03-20T15:58:06.285Z,32.53
2019-03-20T16:00:34.998Z,38.53
2019-03-20T16:03:06.673Z,35.37
2019-03-20T16:05:35.231Z,36.37
2019-03-20T16:08:04.714Z,31.40
2019-03-20T16:10:33.406Z,36.20
2019-03-20T16:13:02.236Z,38.20
2019-03-20T16:15:30.807Z,36.83
2019-03-20T16:17:59.410Z,38.30
2019-03-20T16:20:27.917Z,35.67
2019-03-20T16:22:56.398Z,32.77
2019-03-20T16:25:25.313Z,35.23
2019-03-20T16:27:53.873Z,36.10
2019-03-20T16:30:34.408Z,35.38
2019-03-20T16:33:03.013Z,37.20
2019-03-20T16:35:31.575Z,38.77
2019-03-20T16:38:00.060Z,35.10
2019-03-20T16:40:33.610Z,37.20
2019-03-20T16:43:02.174Z,35.43
2019-03-20T16:45:31.886Z,38.83
2019-03-20T16:48:00.536Z,34.10
2019-03-20T16:50:29.097Z,44.10
2019-03-20T16:52:58.296Z,39.03
2019-03-20T16:55:26.922Z,40.60
2019-03-20T16:57:56.105Z,39.57
2019-03-20T17:00:32.569Z,34.73
2019-03-20T17:03:01.551Z,40.63
2019-03-20T17:05:30.873Z,40.90
2019-03-20T17:07:59.430Z,39.87
2019-03-20T17:10:36.777Z,36.73
2019-03-20T17:13:06.552Z,42.33
2019-03-20T17:15:39.773Z,42.43
2019-03-20T17:18:08.587Z,42.00
2019-03-20T17:20:37.166Z,37.30
2019-03-20T17:23:07.747Z,40.07
2019-03-20T17:25:37.252Z,39.50
2019-03-20T17:28:11.492Z,43.17
2019-03-20T17:30:45.510Z,36.63
2019-03-20T17:33:13.987Z,39.17
2019-03-20T17:35:42.471Z,37.70
2019-03-20T17:38:11.147Z,36.50
2019-03-20T17:40:39.621Z,44.67
2019-03-20T17:43:08.197Z,48.67
2019-03-20T17:45:37.235Z,41.03
2019-03-20T17:48:06.350Z,40.17
2019-03-20T17:50:35.688Z,38.77
2019-03-20T17:53:05.819Z,43.70
2019-03-20T17:55:34.488Z,51.37
2019-03-20T17:58:03.944Z,44.37
2019-03-20T18:00:41.211Z,46.60
2019-03-20T18:03:10.538Z,43.93
2019-03-20T18:05:39.438Z,45.03
2019-03-20T18:08:08.860Z,36.90
2019-03-20T18:10:37.597Z,39.90
2019-03-20T18:13:07.613Z,40.67
2019-03-20T18:15:36.777Z,46.83
2019-03-20T18:18:07.704Z,45.85
2019-03-20T18:20:37.592Z,40.33
2019-03-20T18:23:07.094Z,41.80
2019-03-20T18:25:35.635Z,44.53
2019-03-20T18:28:04.697Z,39.17
2019-03-20T18:30:36.025Z,46.17
2019-03-20T18:33:05.615Z,36.08
2019-03-20T18:35:34.100Z,46.20
2019-03-20T18:38:02.578Z,40.20
2019-03-20T18:40:31.073Z,46.63
2019-03-20T18:42:59.570Z,43.47
2019-03-20T18:45:28.457Z,40.57
2019-03-20T18:47:56.981Z,38.53
2019-03-20T18:50:26.027Z,34.47
2019-03-20T18:52:54.622Z,39.57
2019-03-20T18:55:23.115Z,34.78
2019-03-20T18:57:52.533Z,37.63
2019-03-20T19:00:23.273Z,37.63
2019-03-20T19:02:56.656Z,41.07
2019-03-20T19:05:43.389Z,37.00
2019-03-20T19:08:11.921Z,38.57
2019-03-20T19:10:40.559Z,39.00
2019-03-20T19:13:09.198Z,35.60
2019-03-20T19:15:37.951Z,44.37
2019-03-20T19:18:06.578Z,41.13
2019-03-20T19:20:35.237Z,38.00
2019-03-20T19:23:05.773Z,41.50
2019-03-20T19:25:34.445Z,40.83
2019-03-20T19:28:05.914Z,38.30
2019-03-20T19:30:34.555Z,38.50
2019-03-20T19:33:03.053Z,47.07
2019-03-20T19:35:31.522Z,38.80
2019-03-20T19:38:00.085Z,45.07
2019-03-20T19:40:28.783Z,34.60
2019-03-20T19:42:57.730Z,41.47
2019-03-20T19:45:26.394Z,34.63
2019-03-20T19:47:55.049Z,37.27
2019-03-20T19:50:24.360Z,39.80
2019-03-20T19:52:53.006Z,30.77
2019-03-20T19:55:21.519Z,32.90
2019-03-20T19:57:49.997Z,37.27
2019-03-20T20:00:26.190Z,27.93
2019-03-20T20:02:54.832Z,34.23
2019-03-20T20:05:23.821Z,28.80
2019-03-20T20:07:52.682Z,34.10
2019-03-20T20:10:21.695Z,32.10
2019-03-20T20:12:50.170Z,33.30
2019-03-20T20:15:27.231Z,33.13
2019-03-20T20:17:55.909Z,34.57
2019-03-20T20:20:29.220Z,35.20
2019-03-20T20:22:57.764Z,30.13
2019-03-20T20:25:26.393Z,36.13
2019-03-20T20:27:54.875Z,36.03
2019-03-20T20:30:23.587Z,29.30
2019-03-20T20:32:52.572Z,32.07
2019-03-20T20:35:22.956Z,31.03
2019-03-20T20:37:51.496Z,23.47
2019-03-20T20:40:25.629Z,34.87
2019-03-20T20:42:54.114Z,28.63
2019-03-20T20:45:22.830Z,33.48
2019-03-20T20:47:51.421Z,29.90
2019-03-20T20:50:20.167Z,27.77
2019-03-20T20:52:48.697Z,26.43
2019-03-20T20:55:24.963Z,34.03
2019-03-20T20:57:53.953Z,28.33
2019-03-20T21:00:27.288Z,37.85
2019-03-20T21:02:56.221Z,31.30
2019-03-20T21:05:25.310Z,35.43
2019-03-20T21:07:53.955Z,27.00
2019-03-20T21:10:26.082Z,33.80
2019-03-20T21:12:57.501Z,28.53
2019-03-20T21:15:34.529Z,30.77
2019-03-20T21:18:14.754Z,27.93
2019-03-20T21:20:44.084Z,30.63
2019-03-20T21:23:38.247Z,24.27
2019-03-20T21:26:12.655Z,28.98
2019-03-20T21:28:53.314Z,29.70
2019-03-20T21:31:24.900Z,28.00
2019-03-20T21:34:11.618Z,27.63
2019-03-20T21:37:05.728Z,26.53
2019-03-20T21:39:34.202Z,25.07
2019-03-20T21:42:32.912Z,23.40
2019-03-20T21:45:24.118Z,27.00
2019-03-20T21:47:53.868Z,28.93
2019-03-20T21:50:42.315Z,25.83
2019-03-20T21:53:14.109Z,30.33
2019-03-20T21:56:20.458Z,24.95
2019-03-20T21:58:58.030Z,33.93
2019-03-20T22:01:49.362Z,24.57
2019-03-20T22:04:17.935Z,32.40
2019-03-20T22:07:08.886Z,28.93
2019-03-20T22:09:49.782Z,34.87
2019-03-20T22:12:27.659Z,27.63
2019-03-20T22:15:15.846Z,29.23
2019-03-20T22:18:05.732Z,31.43
2019-03-20T22:20:40.374Z,32.20
2019-03-20T22:23:28.499Z,32.90
2019-03-20T22:26:15.099Z,32.27
2019-03-20T22:29:06.113Z,33.47
2019-03-20T22:31:37.986Z,33.60
2019-03-20T22:34:38.244Z,35.40
2019-03-20T22:37:06.739Z,28.27
2019-03-20T22:40:04.031Z,32.37
2019-03-20T22:42:53.777Z,31.37
2019-03-20T22:45:50.914Z,30.30
2019-03-20T22:48:41.860Z,30.20
2019-03-20T22:51:22.416Z,30.07
2019-03-20T22:54:14.992Z,35.37
2019-03-20T22:57:07.613Z,36.73
2019-03-20T22:59:36.463Z,30.53
2019-03-20T23:02:08.737Z,31.47
2019-03-20T23:04:43.476Z,30.23
2019-03-20T23:07:12.318Z,25.47
2019-03-20T23:09:41.053Z,33.97
2019-03-20T23:12:12.194Z,37.03
2019-03-20T23:14:40.833Z,37.20
2019-03-20T23:17:09.305Z,33.50
2019-03-20T23:19:39.832Z,32.10
2019-03-20T23:22:09.405Z,30.90
2019-03-20T23:24:38.420Z,31.67
2019-03-20T23:27:16.300Z,32.57
2019-03-20T23:29:45.120Z,31.83
2019-03-20T23:32:13.584Z,29.47
2019-03-20T23:34:42.082Z,31.53
2019-03-20T23:37:10.544Z,30.53
2019-03-20T23:39:39.053Z,37.37
2019-03-20T23:42:07.589Z,32.60
2019-03-20T23:44:36.049Z,34.57
2019-03-20T23:47:04.856Z,34.83
2019-03-20T23:49:33.619Z,30.93
2019-03-20T23:52:03.637Z,38.20
2019-03-20T23:54:35.226Z,38.40
2019-03-20T23:57:03.854Z,35.27
2019-03-20T23:59:32.323Z,36.30
